createdAt,value
2019-03-24T00:00:11.838Z,3.21
2019-03-24T00:02:40.528Z,3.22
2019-03-24T00:05:09.141Z,3.31
2019-03-24T00:07:37.887Z,3.19
2019-03-24T00:10:07.899Z,3.36
2019-03-24T00:12:36.565Z,3.28
2019-03-24T00:15:08.229Z,3.20
2019-03-24T00:17:36.904Z,3.17
2019-03-24T00:20:10.244Z,3.16
2019-03-24T00:22:38.872Z,3.21
2019-03-24T00:25:07.690Z,3.13
2019-03-24T00:27:36.391Z,3.21
2019-03-24T00:30:07.275Z,3.17
2019-03-24T00:32:35.875Z,3.03
2019-03-24T00:35:06.553Z,3.14
2019-03-24T00:37:35.209Z,3.10
2019-03-24T00:40:05.395Z,3.06
2019-03-24T00:42:34.014Z,2.93
2019-03-24T00:45:02.660Z,3.04
2019-03-24T00:47:31.290Z,2.96
2019-03-24T00:49:59.978Z,2.98
2019-03-24T00:52:28.576Z,3.01
2019-03-24T00:54:57.266Z,2.72
2019-03-24T00:57:25.933Z,2.61
2019-03-24T00:59:54.614Z,2.64
2019-03-24T01:02:23.227Z,2.59
2019-03-24T01:04:51.842Z,2.66
2019-03-24T01:07:20.491Z,2.66
2019-03-24T01:09:49.163Z,2.59
2019-03-24T01:12:17.772Z,2.59
2019-03-24T01:14:46.457Z,2.48
2019-03-24T01:17:15.081Z,2.50
2019-03-24T01:19:43.690Z,2.63
2019-03-24T01:22:12.367Z,2.50
2019-03-24T01:24:41.052Z,2.52
2019-03-24T01:27:09.663Z,2.48
2019-03-24T01:29:38.336Z,2.36
2019-03-24T01:32:06.992Z,2.41
2019-03-24T01:34:35.650Z,2.41
2019-03-24T01:37:04.328Z,2.43
2019-03-24T01:39:32.944Z,2.36
2019-03-24T01:42:01.632Z,2.30
2019-03-24T01:44:30.239Z,2.30
2019-03-24T01:46:58.910Z,2.42
2019-03-24T01:49:27.582Z,2.38
2019-03-24T01:51:56.189Z,2.46
2019-03-24T01:54:24.970Z,2.35
2019-03-24T01:56:53.707Z,2.26
2019-03-24T01:59:22.414Z,2.27
2019-03-24T02:01:51.080Z,2.19
2019-03-24T02:04:19.772Z,2.12
2019-03-24T02:06:48.451Z,2.14
2019-03-24T02:09:17.130Z,2.08
2019-03-24T02:11:45.781Z,2.09
2019-03-24T02:14:14.421Z,2.13
2019-03-24T02:16:43.109Z,2.21
2019-03-24T02:19:11.783Z,2.10
2019-03-24T02:21:40.453Z,1.99
2019-03-24T02:24:09.064Z,1.91
2019-03-24T02:26:37.732Z,2.00
2019-03-24T02:29:06.336Z,1.95
2019-03-24T02:31:34.987Z,1.99
2019-03-24T02:34:03.656Z,2.08
2019-03-24T02:36:32.389Z,1.99
2019-03-24T02:39:01.058Z,1.95
2019-03-24T02:41:29.701Z,1.85
2019-03-24T02:43:58.400Z,1.83
2019-03-24T02:46:27.079Z,1.78
2019-03-24T02:48:55.757Z,1.78
2019-03-24T02:51:24.359Z,1.82
2019-03-24T02:53:53.040Z,1.78
2019-03-24T02:56:21.771Z,1.70
2019-03-24T02:58:50.412Z,1.59
2019-03-24T03:01:19.090Z,1.71
2019-03-24T03:03:47.695Z,1.73
2019-03-24T03:06:16.361Z,1.78
2019-03-24T03:08:45.043Z,1.72
2019-03-24T03:11:13.710Z,1.80
2019-03-24T03:13:42.433Z,1.80
2019-03-24T03:16:11.040Z,1.76
2019-03-24T03:18:39.807Z,1.70
2019-03-24T03:21:08.418Z,1.73
2019-03-24T03:23:37.093Z,1.61
2019-03-24T03:26:05.763Z,1.59
2019-03-24T03:28:34.404Z,1.63
2019-03-24T03:31:03.181Z,1.52
2019-03-24T03:33:31.884Z,1.57
2019-03-24T03:36:00.654Z,1.50
2019-03-24T03:38:29.345Z,1.63
2019-03-24T03:40:58.156Z,1.63
2019-03-24T03:43:26.918Z,1.47
2019-03-24T03:45:55.617Z,1.38
2019-03-24T03:48:24.295Z,1.38
2019-03-24T03:50:53.094Z,1.31
2019-03-24T03:53:21.761Z,1.34
2019-03-24T03:55:50.371Z,1.27
2019-03-24T03:58:19.045Z,1.28
2019-03-24T04:00:47.724Z,1.17
2019-03-24T04:03:16.336Z,1.21
2019-03-24T04:05:45.008Z,1.18
2019-03-24T04:08:13.685Z,1.24
2019-03-24T04:10:42.386Z,1.07
2019-03-24T04:13:11.013Z,1.15
2019-03-24T04:15:39.775Z,1.15
2019-03-24T04:18:08.450Z,1.18
2019-03-24T04:20:37.122Z,1.27
2019-03-24T04:23:05.732Z,1.15
2019-03-24T04:25:34.399Z,1.14
2019-03-24T04:28:03.039Z,1.06
2019-03-24T04:30:31.731Z,1.20
2019-03-24T04:33:00.348Z,1.13
2019-03-24T04:35:29.014Z,1.07
2019-03-24T04:37:57.702Z,1.16
2019-03-24T04:40:26.307Z,1.13
2019-03-24T04:42:54.977Z,1.07
2019-03-24T04:45:23.667Z,0.96
2019-03-24T04:47:52.352Z,0.94
2019-03-24T04:50:21.166Z,0.76
2019-03-24T04:52:49.833Z,0.87
2019-03-24T04:55:18.513Z,0.87
2019-03-24T04:57:47.304Z,0.87
2019-03-24T05:00:16.400Z,0.83
2019-03-24T05:02:46.112Z,0.78
2019-03-24T05:05:14.794Z,0.82
2019-03-24T05:07:43.586Z,0.75
2019-03-24T05:10:15.344Z,0.79
2019-03-24T05:12:44.033Z,0.85
2019-03-24T05:15:12.719Z,0.88
2019-03-24T05:17:41.391Z,0.86
2019-03-24T05:20:10.107Z,0.80
2019-03-24T05:22:38.785Z,0.72
2019-03-24T05:25:07.392Z,0.75
2019-03-24T05:27:36.061Z,0.80
2019-03-24T05:30:06.846Z,0.88
2019-03-24T05:32:35.514Z,1.07
2019-03-24T05:35:05.838Z,3.06
2019-03-24T05:37:34.833Z,4.68
2019-03-24T05:40:04.410Z,5.54
2019-03-24T05:42:33.071Z,6.42
2019-03-24T05:45:02.275Z,7.38
2019-03-24T05:47:37.128Z,6.41
2019-03-24T05:50:01.413Z,5.37
2019-03-24T05:52:30.228Z,4.04
2019-03-24T05:54:59.223Z,3.97
2019-03-24T05:57:30.404Z,3.71
2019-03-24T05:59:59.173Z,3.57
2019-03-24T06:02:27.969Z,3.57
2019-03-24T06:04:57.133Z,3.72
2019-03-24T06:07:25.858Z,3.48
2019-03-24T06:09:54.683Z,3.84
2019-03-24T06:12:23.583Z,4.08
2019-03-24T06:14:52.375Z,4.39
2019-03-24T06:17:21.141Z,4.58
2019-03-24T06:19:49.943Z,4.81
2019-03-24T06:22:18.626Z,4.71
2019-03-24T06:24:47.347Z,4.84
2019-03-24T06:27:16.128Z,5.14
2019-03-24T06:29:45.612Z,5.33
2019-03-24T06:32:14.259Z,5.48
2019-03-24T06:34:42.975Z,5.51
2019-03-24T06:37:11.763Z,5.64
2019-03-24T06:39:40.422Z,5.69
2019-03-24T06:42:09.112Z,5.88
2019-03-24T06:44:37.796Z,5.81
2019-03-24T06:47:06.483Z,5.50
2019-03-24T06:49:35.112Z,5.58
2019-03-24T06:52:03.799Z,6.03
2019-03-24T06:54:32.474Z,5.56
2019-03-24T06:57:01.111Z,5.85
2019-03-24T06:59:29.745Z,5.58
2019-03-24T07:02:00.019Z,5.73
2019-03-24T07:04:28.803Z,6.47
2019-03-24T07:06:57.459Z,6.63
2019-03-24T07:09:26.159Z,6.48
2019-03-24T07:11:54.820Z,6.84
2019-03-24T07:14:23.552Z,6.35
2019-03-24T07:16:52.281Z,6.81
2019-03-24T07:19:20.972Z,7.11
2019-03-24T07:21:55.740Z,7.38
2019-03-24T07:24:24.421Z,7.59
2019-03-24T07:26:53.231Z,8.20
2019-03-24T07:29:21.929Z,8.28
2019-03-24T07:31:52.119Z,8.80
2019-03-24T07:34:20.817Z,8.58
2019-03-24T07:36:49.515Z,8.50
2019-03-24T07:39:19.510Z,8.40
2019-03-24T07:41:48.162Z,8.13
2019-03-24T07:44:18.422Z,8.88
2019-03-24T07:46:48.647Z,9.24
2019-03-24T07:49:17.357Z,9.00
2019-03-24T07:51:45.969Z,9.68
2019-03-24T07:54:14.642Z,9.43
2019-03-24T07:56:43.322Z,8.62
2019-03-24T07:59:12.012Z,9.39
2019-03-24T08:01:40.691Z,9.59
2019-03-24T08:04:09.316Z,9.34
2019-03-24T08:06:38.002Z,9.16
2019-03-24T08:09:07.583Z,8.63
2019-03-24T08:11:36.276Z,9.06
2019-03-24T08:14:04.889Z,9.82
2019-03-24T08:16:36.577Z,9.42
2019-03-24T08:19:05.193Z,10.19
2019-03-24T08:21:39.738Z,9.67
2019-03-24T08:24:08.374Z,9.27
2019-03-24T08:26:37.050Z,9.46
2019-03-24T08:29:05.983Z,10.32
2019-03-24T08:31:34.649Z,10.27
2019-03-24T08:34:03.372Z,11.03
2019-03-24T08:36:32.014Z,10.79
2019-03-24T08:39:00.695Z,10.72
2019-03-24T08:41:30.991Z,11.38
2019-03-24T08:44:01.188Z,11.56
2019-03-24T08:46:30.053Z,11.29
2019-03-24T08:48:58.738Z,11.81
2019-03-24T08:51:27.421Z,11.57
2019-03-24T08:53:56.024Z,11.17
2019-03-24T08:56:24.772Z,11.52
2019-03-24T08:58:53.376Z,12.32
2019-03-24T09:01:23.561Z,12.37
2019-03-24T09:03:52.289Z,12.45
2019-03-24T09:06:21.014Z,13.28
2019-03-24T09:08:49.684Z,12.97
2019-03-24T09:11:18.354Z,12.54
2019-03-24T09:13:49.359Z,12.91
2019-03-24T09:16:17.983Z,13.34
2019-03-24T09:18:52.608Z,12.01
2019-03-24T09:21:19.508Z,12.56
2019-03-24T09:23:47.471Z,12.72
2019-03-24T09:26:16.156Z,13.39
2019-03-24T09:28:44.801Z,13.77
2019-03-24T09:31:13.485Z,12.77
2019-03-24T09:33:42.129Z,13.87
2019-03-24T09:36:10.827Z,13.63
2019-03-24T09:38:42.530Z,13.84
2019-03-24T09:41:11.213Z,13.89
2019-03-24T09:43:39.915Z,14.02
2019-03-24T09:46:08.599Z,13.79
2019-03-24T09:48:40.159Z,14.14
2019-03-24T09:51:08.935Z,14.34
2019-03-24T09:53:38.598Z,13.99
2019-03-24T09:56:07.259Z,14.58
2019-03-24T09:58:37.431Z,14.55
2019-03-24T10:01:06.138Z,14.82
2019-03-24T10:03:37.486Z,13.97
2019-03-24T10:06:06.211Z,14.53
2019-03-24T10:08:46.604Z,15.28
2019-03-24T10:11:06.857Z,15.43
2019-03-24T10:13:39.669Z,14.89
2019-03-24T10:16:08.288Z,15.14
2019-03-24T10:18:37.009Z,15.32
2019-03-24T10:21:07.257Z,15.75
2019-03-24T10:23:38.810Z,15.76
2019-03-24T10:26:07.813Z,15.76
2019-03-24T10:28:39.607Z,16.14
2019-03-24T10:31:08.320Z,16.32
2019-03-24T10:33:36.934Z,15.82
2019-03-24T10:36:05.639Z,16.39
2019-03-24T10:38:34.295Z,16.89
2019-03-24T10:41:03.089Z,17.12
2019-03-24T10:43:34.504Z,16.87
2019-03-24T10:46:03.099Z,16.56
2019-03-24T10:48:36.050Z,16.17
2019-03-24T10:51:04.707Z,16.73
2019-03-24T10:53:33.384Z,16.16
2019-03-24T10:56:02.000Z,16.58
2019-03-24T10:58:30.688Z,16.79
2019-03-24T11:00:59.381Z,17.59
2019-03-24T11:03:31.096Z,17.92
2019-03-24T11:05:59.759Z,17.29
2019-03-24T11:08:30.043Z,16.88
2019-03-24T11:10:58.671Z,17.53
2019-03-24T11:13:30.223Z,17.65
2019-03-24T11:15:59.725Z,17.67
2019-03-24T11:18:28.675Z,17.87
2019-03-24T11:20:57.293Z,18.07
2019-03-24T11:23:28.743Z,18.14
2019-03-24T11:25:57.416Z,18.31
2019-03-24T11:28:26.056Z,18.93
2019-03-24T11:30:56.879Z,18.19
2019-03-24T11:33:29.488Z,18.00
2019-03-24T11:35:57.488Z,18.41
2019-03-24T11:38:27.605Z,18.54
2019-03-24T11:40:56.304Z,18.90
2019-03-24T11:43:24.928Z,18.40
2019-03-24T11:45:53.686Z,18.84
2019-03-24T11:48:24.016Z,18.46
2019-03-24T11:50:54.437Z,18.60
2019-03-24T11:53:23.166Z,19.00
2019-03-24T11:55:51.894Z,18.95
2019-03-24T11:58:20.651Z,19.07
2019-03-24T12:00:49.286Z,18.49
2019-03-24T12:03:18.007Z,18.94
2019-03-24T12:05:46.727Z,19.96
2019-03-24T12:08:16.489Z,19.60
2019-03-24T12:10:45.352Z,19.41
2019-03-24T12:13:18.920Z,19.92
2019-03-24T12:15:47.645Z,19.83
2019-03-24T12:18:21.012Z,19.38
2019-03-24T12:20:49.698Z,20.26
2019-03-24T12:23:21.379Z,19.54
2019-03-24T12:25:50.086Z,19.16
2019-03-24T12:28:18.791Z,19.32
2019-03-24T12:30:47.401Z,20.01
2019-03-24T12:33:17.600Z,20.34
2019-03-24T12:35:46.288Z,20.36
2019-03-24T12:38:14.987Z,20.19
2019-03-24T12:40:43.613Z,19.54
2019-03-24T12:43:19.624Z,20.38
2019-03-24T12:45:46.991Z,20.05
2019-03-24T12:48:15.779Z,20.47
2019-03-24T12:50:45.974Z,20.31
2019-03-24T12:53:16.094Z,20.71
2019-03-24T12:55:44.783Z,20.71
2019-03-24T12:58:13.427Z,20.79
2019-03-24T13:00:42.082Z,20.97
2019-03-24T13:03:15.356Z,20.45
2019-03-24T13:05:43.977Z,20.04
2019-03-24T13:08:17.648Z,20.86
2019-03-24T13:10:47.045Z,20.56
2019-03-24T13:13:18.643Z,20.75
2019-03-24T13:15:50.215Z,20.55
2019-03-24T13:18:18.825Z,20.25
2019-03-24T13:20:47.513Z,20.55
2019-03-24T13:23:16.133Z,20.49
2019-03-24T13:25:44.750Z,21.29
2019-03-24T13:28:13.454Z,20.89
2019-03-24T13:30:42.063Z,20.46
2019-03-24T13:33:10.715Z,21.06
2019-03-24T13:35:39.371Z,20.87
2019-03-24T13:38:08.050Z,20.79
2019-03-24T13:40:36.741Z,21.15
2019-03-24T13:43:05.381Z,21.08
2019-03-24T13:45:33.994Z,20.86
2019-03-24T13:48:02.708Z,20.96
2019-03-24T13:50:31.983Z,21.31
2019-03-24T13:53:00.812Z,21.61
2019-03-24T13:55:29.429Z,21.13
2019-03-24T13:57:58.206Z,21.27
2019-03-24T14:00:26.818Z,21.07
2019-03-24T14:02:55.465Z,21.11
2019-03-24T14:05:24.101Z,21.21
2019-03-24T14:07:52.805Z,21.53
2019-03-24T14:10:21.512Z,21.17
2019-03-24T14:12:50.318Z,21.60
2019-03-24T14:15:19.084Z,21.42
2019-03-24T14:17:47.802Z,20.74
2019-03-24T14:20:17.969Z,20.91
2019-03-24T14:22:46.644Z,20.54
2019-03-24T14:25:15.282Z,20.79
2019-03-24T14:27:43.967Z,20.73
2019-03-24T14:30:13.155Z,20.87
2019-03-24T14:32:41.774Z,21.19
2019-03-24T14:35:10.562Z,20.99
2019-03-24T14:37:39.181Z,20.74
2019-03-24T14:40:08.602Z,20.73
2019-03-24T14:42:37.254Z,20.92
2019-03-24T14:45:10.121Z,20.66
2019-03-24T14:47:38.801Z,20.72
2019-03-24T14:50:07.915Z,20.19
2019-03-24T14:52:36.582Z,20.59
2019-03-24T14:55:06.525Z,20.23
2019-03-24T14:57:35.209Z,20.52
2019-03-24T15:00:05.837Z,20.20
2019-03-24T15:02:34.497Z,20.46
2019-03-24T15:05:03.187Z,19.63
2019-03-24T15:07:31.824Z,19.14
2019-03-24T15:10:00.471Z,19.04
2019-03-24T15:12:29.186Z,19.07
2019-03-24T15:14:57.887Z,18.60
2019-03-24T15:17:26.520Z,18.61
2019-03-24T15:19:55.196Z,18.34
2019-03-24T15:22:23.819Z,17.74
2019-03-24T15:24:52.498Z,17.49
2019-03-24T15:27:21.122Z,17.28
2019-03-24T15:29:49.781Z,17.25
2019-03-24T15:32:18.492Z,17.50
2019-03-24T15:34:47.108Z,16.99
2019-03-24T15:37:15.796Z,16.85
2019-03-24T15:39:45.984Z,16.49
2019-03-24T15:42:14.681Z,16.06
2019-03-24T15:44:43.316Z,15.93
2019-03-24T15:47:12.035Z,15.89
2019-03-24T15:49:40.659Z,15.66
2019-03-24T15:52:10.868Z,15.01
2019-03-24T15:54:39.596Z,15.19
2019-03-24T15:57:08.261Z,14.86
2019-03-24T15:59:36.970Z,14.54
2019-03-24T16:02:05.606Z,14.18
2019-03-24T16:04:34.221Z,13.86
2019-03-24T16:07:02.965Z,13.87
2019-03-24T16:09:31.574Z,13.74
2019-03-24T16:12:00.269Z,13.63
2019-03-24T16:14:28.966Z,13.60
2019-03-24T16:16:57.602Z,13.68
2019-03-24T16:19:28.558Z,13.07
2019-03-24T16:21:56.693Z,13.97
2019-03-24T16:24:25.293Z,13.57
2019-03-24T16:26:53.984Z,13.42
2019-03-24T16:29:22.611Z,13.13
2019-03-24T16:31:51.292Z,13.06
2019-03-24T16:34:20.006Z,12.88
2019-03-24T16:36:48.691Z,12.77
2019-03-24T16:39:17.341Z,12.70
2019-03-24T16:41:45.997Z,12.47
2019-03-24T16:44:14.661Z,12.42
2019-03-24T16:46:43.290Z,12.30
2019-03-24T16:49:12.002Z,11.98
2019-03-24T16:51:41.660Z,11.83
2019-03-24T16:54:10.646Z,12.11
2019-03-24T16:56:39.331Z,12.25
2019-03-24T16:59:08.031Z,11.95
2019-03-24T17:01:36.652Z,11.85
2019-03-24T17:04:05.365Z,11.72
2019-03-24T17:06:34.044Z,11.84
2019-03-24T17:09:02.747Z,11.78
2019-03-24T17:11:31.372Z,11.64
2019-03-24T17:14:00.043Z,11.59
2019-03-24T17:16:28.703Z,11.32
2019-03-24T17:18:57.376Z,11.35
2019-03-24T17:21:26.051Z,11.26
2019-03-24T17:23:54.738Z,11.27
2019-03-24T17:26:23.453Z,11.14
2019-03-24T17:28:52.132Z,11.08
2019-03-24T17:31:20.889Z,11.19
2019-03-24T17:33:49.572Z,11.22
2019-03-24T17:36:18.189Z,11.00
2019-03-24T17:38:46.912Z,10.75
2019-03-24T17:41:15.533Z,10.82
2019-03-24T17:43:44.344Z,10.70
2019-03-24T17:46:13.003Z,10.45
2019-03-24T17:48:41.725Z,10.29
2019-03-24T17:51:10.419Z,10.01
2019-03-24T17:53:42.125Z,9.95
2019-03-24T17:56:10.816Z,10.14
2019-03-24T17:58:39.460Z,10.44
2019-03-24T18:01:08.295Z,10.27
2019-03-24T18:03:36.922Z,10.14
2019-03-24T18:06:05.606Z,10.03
2019-03-24T18:08:34.452Z,10.01
2019-03-24T18:11:03.427Z,9.84
2019-03-24T18:13:32.219Z,9.85
2019-03-24T18:16:01.138Z,10.21
2019-03-24T18:18:29.872Z,10.47
2019-03-24T18:20:58.507Z,10.39
2019-03-24T18:23:27.232Z,10.19
2019-03-24T18:25:55.877Z,10.04
2019-03-24T18:28:24.537Z,9.85
2019-03-24T18:30:53.236Z,9.71
2019-03-24T18:33:22.291Z,9.55
2019-03-24T18:35:50.924Z,9.42
2019-03-24T18:38:19.594Z,9.44
2019-03-24T18:40:49.806Z,9.58
2019-03-24T18:43:18.472Z,9.32
2019-03-24T18:45:47.184Z,9.36
2019-03-24T18:48:17.389Z,9.43
2019-03-24T18:50:46.620Z,9.21
2019-03-24T18:53:15.355Z,9.52
2019-03-24T18:55:44.039Z,9.60
2019-03-24T18:58:12.690Z,9.53
2019-03-24T19:00:43.059Z,9.42
2019-03-24T19:03:11.688Z,9.31
2019-03-24T19:05:40.318Z,8.95
2019-03-24T19:08:10.198Z,8.91
2019-03-24T19:10:38.961Z,8.90
2019-03-24T19:13:07.596Z,8.83
2019-03-24T19:15:37.484Z,8.84
2019-03-24T19:18:06.506Z,9.26
2019-03-24T19:20:35.149Z,9.04
2019-03-24T19:23:03.864Z,8.84
2019-03-24T19:25:33.091Z,8.67
2019-03-24T19:28:03.467Z,8.77
2019-03-24T19:30:37.262Z,8.86
2019-03-24T19:33:06.578Z,8.65
2019-03-24T19:35:35.322Z,8.33
2019-03-24T19:38:04.148Z,8.39
2019-03-24T19:40:34.888Z,8.59
2019-03-24T19:43:03.596Z,8.58
2019-03-24T19:45:32.370Z,8.40
2019-03-24T19:48:01.165Z,8.17
2019-03-24T19:50:30.327Z,8.12
2019-03-24T19:52:58.957Z,8.22
2019-03-24T19:55:27.863Z,8.49
2019-03-24T19:57:56.498Z,8.53
2019-03-24T20:00:25.702Z,8.41
2019-03-24T20:02:54.349Z,8.50
2019-03-24T20:05:23.161Z,8.47
2019-03-24T20:07:51.932Z,8.29
2019-03-24T20:10:20.582Z,8.37
2019-03-24T20:12:49.295Z,8.32
2019-03-24T20:15:18.179Z,8.22
2019-03-24T20:17:46.828Z,8.03
2019-03-24T20:20:15.668Z,8.04
2019-03-24T20:22:55.575Z,8.10
2019-03-24T20:25:14.756Z,8.10
2019-03-24T20:27:43.470Z,8.11
2019-03-24T20:30:12.438Z,8.23
2019-03-24T20:32:41.139Z,8.30
2019-03-24T20:35:09.827Z,8.25
2019-03-24T20:37:38.479Z,8.08
2019-03-24T20:40:07.420Z,8.04
2019-03-24T20:42:36.467Z,7.73
2019-03-24T20:45:07.268Z,7.82
2019-03-24T20:47:36.050Z,8.05
2019-03-24T20:50:06.685Z,7.92
2019-03-24T20:52:35.365Z,7.90
2019-03-24T20:55:08.174Z,7.98
2019-03-24T20:57:36.965Z,7.84
2019-03-24T21:00:07.567Z,7.59
2019-03-24T21:02:37.790Z,7.54
2019-03-24T21:05:06.931Z,7.65
2019-03-24T21:07:35.553Z,7.58
2019-03-24T21:10:06.730Z,7.45
2019-03-24T21:12:35.587Z,7.09
2019-03-24T21:15:06.574Z,7.28
2019-03-24T21:17:35.284Z,7.25
2019-03-24T21:20:05.214Z,7.23
2019-03-24T21:22:33.917Z,7.07
2019-03-24T21:25:02.577Z,6.99
2019-03-24T21:27:31.250Z,7.05
2019-03-24T21:29:59.929Z,7.08
2019-03-24T21:32:28.770Z,7.08
2019-03-24T21:34:57.490Z,7.09
2019-03-24T21:37:26.123Z,7.09
2019-03-24T21:39:54.790Z,6.92
2019-03-24T21:42:23.407Z,6.82
2019-03-24T21:44:52.089Z,6.85
2019-03-24T21:47:20.702Z,6.81
2019-03-24T21:49:49.382Z,6.80
2019-03-24T21:52:18.041Z,6.72
2019-03-24T21:54:46.713Z,6.70
2019-03-24T21:57:15.351Z,6.73
2019-03-24T21:59:44.009Z,6.77
2019-03-24T22:02:12.770Z,6.73
2019-03-24T22:04:41.442Z,6.58
2019-03-24T22:07:10.141Z,6.57
2019-03-24T22:09:38.788Z,6.66
2019-03-24T22:12:07.450Z,6.63
2019-03-24T22:14:36.070Z,6.64
2019-03-24T22:17:04.768Z,6.72
2019-03-24T22:19:33.382Z,6.85
2019-03-24T22:22:02.076Z,7.04
2019-03-24T22:24:30.712Z,7.16
2019-03-24T22:26:59.400Z,6.90
2019-03-24T22:29:28.016Z,6.70
2019-03-24T22:31:56.731Z,6.75
2019-03-24T22:34:25.386Z,6.85
2019-03-24T22:36:55.844Z,7.00
2019-03-24T22:39:24.458Z,6.79
2019-03-24T22:41:53.156Z,6.67
2019-03-24T22:44:21.802Z,6.81
2019-03-24T22:46:50.431Z,6.72
2019-03-24T22:49:19.132Z,6.90
2019-03-24T22:51:47.833Z,6.60
2019-03-24T22:54:16.526Z,6.67
2019-03-24T22:56:45.228Z,6.73
2019-03-24T22:59:13.922Z,6.68
2019-03-24T23:01:42.534Z,6.78
2019-03-24T23:04:11.218Z,6.70
2019-03-24T23:06:39.841Z,6.64
2019-03-24T23:09:09.329Z,6.60
2019-03-24T23:11:37.949Z,6.40
2019-03-24T23:14:06.564Z,6.34
2019-03-24T23:16:35.244Z,6.23
2019-03-24T23:19:03.964Z,6.25
2019-03-24T23:21:32.636Z,6.23
2019-03-24T23:24:01.258Z,6.19
2019-03-24T23:26:29.980Z,6.13
2019-03-24T23:28:58.605Z,6.11
2019-03-24T23:31:27.206Z,6.06
2019-03-24T23:33:55.885Z,6.13
2019-03-24T23:36:24.610Z,6.22
2019-03-24T23:38:53.224Z,6.07
2019-03-24T23:41:21.902Z,5.97
2019-03-24T23:43:50.612Z,6.18
2019-03-24T23:46:19.238Z,6.44
2019-03-24T23:48:47.906Z,6.49
2019-03-24T23:51:17.126Z,6.50
2019-03-24T23:53:45.808Z,6.51
2019-03-24T23:56:14.495Z,6.40
2019-03-24T23:58:43.117Z,6.45
